Time;durP1;ratioP1;P1;durP2;ratioP2;P2;SDS_P1;SDS_P2;PMS_P1;PMS_P2;Temp;Humidity;BMP_temperature;BMP_pressure;BME280_temperature;BME280_humidity;BME280_pressure;Samples;Min_cycle;Max_cycle;Signal;HPM_P1;HPM_P2
2023/01/18 00:00:46;;;;;;;26.90;16.80;;;;;;;-2.68;100.00;99069.25;4993833;28;20134;-88
2023/01/18 00:03:13;;;;;;;13.45;7.20;;;;;;;-2.59;100.00;99073.94;5005810;28;20041;-88
2023/01/18 00:05:42;;;;;;;13.23;6.95;;;;;;;-2.58;100.00;99067.88;5011792;28;20340;-88
2023/01/18 00:08:12;;;;;;;21.90;15.07;;;;;;;-2.71;100.00;99069.41;4996010;28;20038;-87
2023/01/18 00:10:39;;;;;;;16.60;7.10;;;;;;;-2.62;100.00;99062.97;4994515;28;20149;-88
2023/01/18 00:13:05;;;;;;;21.10;15.85;;;;;;;-2.75;100.00;99057.59;5001592;28;20135;-87
2023/01/18 00:15:31;;;;;;;17.48;7.35;;;;;;;-2.68;100.00;99058.94;5002850;28;20556;-87
2023/01/18 00:17:57;;;;;;;20.05;14.77;;;;;;;-2.78;100.00;99062.06;4993252;28;20035;-82
2023/01/18 00:20:24;;;;;;;13.60;6.50;;;;;;;-2.69;100.00;99062.44;4993259;28;20044;-86
2023/01/18 00:22:51;;;;;;;18.95;6.25;;;;;;;-2.69;100.00;99072.72;4992560;28;20042;-89
2023/01/18 00:25:21;;;;;;;15.23;6.60;;;;;;;-2.70;100.00;99072.81;4991672;28;20034;-88
2023/01/18 00:27:49;;;;;;;13.50;6.20;;;;;;;-2.69;100.00;99075.31;4992715;28;20034;-88
2023/01/18 00:30:16;;;;;;;13.73;6.70;;;;;;;-2.69;100.00;99067.56;4997414;28;20037;-88
2023/01/18 00:32:44;;;;;;;10.65;5.53;;;;;;;-2.72;100.00;99067.72;5012338;28;20109;-89
2023/01/18 00:35:10;;;;;;;11.75;5.53;;;;;;;-2.71;100.00;99071.97;5012697;28;20034;-89
2023/01/18 00:37:36;;;;;;;9.40;5.18;;;;;;;-2.69;100.00;99083.03;5025367;28;20033;-89
2023/01/18 00:40:04;;;;;;;23.45;14.60;;;;;;;-2.79;100.00;99084.38;5009776;28;20048;-88
2023/01/18 00:45:15;;;;;;;18.02;14.73;;;;;;;-2.81;100.00;99080.19;5000990;28;20155;-83
2023/01/18 00:47:40;;;;;;;16.77;6.65;;;;;;;-2.72;100.00;99080.59;4999582;28;20465;-88
2023/01/18 00:50:07;;;;;;;13.57;6.63;;;;;;;-2.68;100.00;99078.72;4993033;28;20033;-84
2023/01/18 00:52:33;;;;;;;19.85;13.90;;;;;;;-2.84;100.00;99088.88;5010927;28;20038;-86
2023/01/18 00:55:02;;;;;;;11.85;5.88;;;;;;;-2.73;100.00;99085.81;4987039;28;20037;-81
2023/01/18 00:57:28;;;;;;;13.85;5.78;;;;;;;-2.74;100.00;99089.31;4988253;28;20116;-88
2023/01/18 00:59:53;;;;;;;16.77;6.45;;;;;;;-2.76;100.00;99088.53;4991135;28;20503;-88
2023/01/18 01:02:19;;;;;;;19.05;6.25;;;;;;;-2.75;100.00;99092.78;4973142;28;20041;-88
2023/01/18 01:07:28;;;;;;;15.10;6.38;;;;;;;-2.78;100.00;99088.63;4988117;28;20077;-88
2023/01/18 01:09:56;;;;;;;15.40;6.05;;;;;;;-2.76;100.00;99089.38;4988596;28;20110;-87
2023/01/18 01:26:10;;;;;;;14.18;6.55;;;;;;;-2.79;100.00;99102.38;4992357;28;20181;-86
2023/01/18 01:28:41;;;;;;;21.73;14.73;;;;;;;-2.96;100.00;99099.75;4991601;28;20034;-86
2023/01/18 01:31:09;;;;;;;17.30;6.72;;;;;;;-2.84;100.00;99105.16;4992055;28;20388;-86
2023/01/18 01:33:36;;;;;;;22.13;14.95;;;;;;;-3.00;100.00;99104.22;4972714;28;20256;-82
2023/01/18 01:36:10;;;;;;;18.33;7.28;;;;;;;-2.87;100.00;99105.31;4998853;28;20030;-86
2023/01/18 01:38:36;;;;;;;22.55;15.00;;;;;;;-3.02;100.00;99110.34;5009609;28;20023;-86
2023/01/18 01:41:07;;;;;;;17.10;7.70;;;;;;;-2.91;100.00;99114.06;4980233;28;20033;-86
2023/01/18 01:43:43;;;;;;;21.55;15.20;;;;;;;-2.98;100.00;99117.84;4977311;28;20030;-86
2023/01/18 01:46:25;;;;;;;12.52;6.80;;;;;;;-2.89;100.00;99122.56;4979401;28;20153;-85
2023/01/18 01:48:59;;;;;;;13.77;6.28;;;;;;;-2.89;100.00;99129.44;4978735;28;20043;-86
2023/01/18 01:51:25;;;;;;;20.27;14.88;;;;;;;-3.02;100.00;99128.34;4979699;28;20037;-86
2023/01/18 01:53:50;;;;;;;17.60;6.32;;;;;;;-2.92;100.00;99127.84;4985664;28;20030;-86
2023/01/18 01:56:21;;;;;;;12.82;6.18;;;;;;;-2.92;100.00;99125.28;5018019;28;20034;-86
2023/01/18 01:58:51;;;;;;;16.30;6.43;;;;;;;-2.92;100.00;99137.31;4984947;28;20053;-87
2023/01/18 02:01:16;;;;;;;20.25;14.65;;;;;;;-3.09;100.00;99130.38;5007199;28;20030;-86
2023/01/18 02:03:42;;;;;;;20.08;7.18;;;;;;;-2.95;100.00;99134.88;5007224;28;20101;-85
2023/01/18 02:06:30;;;;;;;23.08;15.43;;;;;;;-3.08;100.00;99134.63;4986531;28;20025;-86
2023/01/18 02:09:01;;;;;;;21.65;6.72;;;;;;;-2.98;100.00;99133.28;4999552;28;20030;-86
2023/01/18 02:11:28;;;;;;;21.15;15.35;;;;;;;-3.07;100.00;99132.88;4986165;28;20045;-86
2023/01/18 02:13:57;;;;;;;14.52;6.97;;;;;;;-2.98;100.00;99137.59;4990988;28;20038;-86
2023/01/18 02:16:29;;;;;;;16.17;7.72;;;;;;;-2.98;100.00;99128.13;4986886;28;20911;-86
2023/01/18 02:19:16;;;;;;;22.48;15.60;;;;;;;-3.08;100.00;99133.78;5009963;28;20044;-86
2023/01/18 02:21:51;;;;;;;17.40;7.35;;;;;;;-2.98;100.00;99133.28;4975395;28;20443;-86
2023/01/18 02:24:16;;;;;;;25.80;15.32;;;;;;;-3.08;100.00;99126.06;4990535;28;20038;-86
2023/01/18 02:26:55;;;;;;;14.43;6.57;;;;;;;-2.97;100.00;99128.97;4998719;28;20044;-86
2023/01/18 02:30:08;;;;;;;16.35;6.95;;;;;;;-2.97;100.00;99119.50;4991640;28;20037;-86
2023/01/18 02:32:39;;;;;;;14.45;6.35;;;;;;;-2.99;100.00;99125.63;4990679;28;20034;-86
2023/01/18 02:35:10;;;;;;;19.10;6.40;;;;;;;-3.01;100.00;99137.72;5009577;28;20172;-86
2023/01/18 02:38:01;;;;;;;21.60;14.82;;;;;;;-3.11;100.00;99133.94;5010351;28;20030;-87
2023/01/18 02:40:33;;;;;;;14.93;6.20;;;;;;;-3.05;100.00;99138.78;5001209;28;20046;-86
2023/01/18 02:48:51;;;;;;;13.13;7.10;;;;;;;-3.08;100.00;99146.63;4979324;28;20117;-86
2023/01/18 02:51:17;;;;;;;19.10;14.50;;;;;;;-3.22;100.00;99145.50;4971289;28;20384;-86
2023/01/18 02:53:44;;;;;;;19.88;14.55;;;;;;;-3.21;100.00;99156.63;4988397;28;20065;-86
2023/01/18 02:56:14;;;;;;;15.48;7.40;;;;;;;-3.11;100.00;99146.78;5005613;28;20495;-86
2023/01/18 02:58:47;;;;;;;19.65;14.25;;;;;;;-3.25;100.00;99155.94;4989863;28;20034;-82
2023/01/18 03:01:21;;;;;;;13.68;6.15;;;;;;;-3.14;100.00;99149.50;4971583;28;20391;-83
2023/01/18 03:03:50;;;;;;;14.23;7.07;;;;;;;-3.18;100.00;99149.63;4973362;28;20482;-86
2023/01/18 03:06:23;;;;;;;14.48;6.88;;;;;;;-3.19;100.00;99163.41;4990856;28;20031;-87
2023/01/18 03:08:53;;;;;;;25.70;15.18;;;;;;;-3.33;100.00;99165.72;5005584;28;20030;-86
2023/01/18 03:11:27;;;;;;;20.42;14.63;;;;;;;-3.31;100.00;99166.50;5003567;28;20046;-86
2023/01/18 03:14:16;;;;;;;11.20;6.03;;;;;;;-3.24;100.00;99157.59;4969929;28;20104;-86
2023/01/18 03:17:00;;;;;;;13.63;7.15;;;;;;;-3.24;100.00;99149.88;4982755;28;20050;-83
2023/01/18 03:23:36;;;;;;;14.70;6.57;;;;;;;-3.29;100.00;99154.41;5009538;28;20049;-86
2023/01/18 03:25:10;;;;;;;10.00;6.35;;;;;;;-3.31;100.00;99157.94;5009201;28;20041;-87
2023/01/18 03:35:54;;;;;;;11.82;5.85;;;;;;;-3.41;100.00;99160.09;4992760;28;20081;-86
2023/01/18 03:38:21;;;;;;;15.52;6.63;;;;;;;-3.42;100.00;99155.88;4989137;28;20107;-87
2023/01/18 03:40:46;;;;;;;12.13;6.20;;;;;;;-3.42;100.00;99163.56;4995677;28;20569;-86
2023/01/18 03:43:19;;;;;;;21.83;15.68;;;;;;;-3.54;100.00;99164.13;4989422;28;20034;-86
2023/01/18 03:45:52;;;;;;;24.35;15.77;;;;;;;-3.61;100.00;99167.84;4999330;28;20042;-86
2023/01/18 03:48:17;;;;;;;13.40;6.25;;;;;;;-3.45;100.00;99168.03;4989113;28;20058;-86
2023/01/18 03:51:05;;;;;;;17.63;6.35;;;;;;;-3.46;100.00;99167.19;4990030;28;20073;-86
2023/01/18 03:53:39;;;;;;;23.08;15.35;;;;;;;-3.56;100.00;99184.75;4990575;28;20046;-86
2023/01/18 03:56:12;;;;;;;22.85;15.85;;;;;;;-3.58;100.00;99188.28;4989653;28;20041;-86
2023/01/18 03:58:39;;;;;;;17.48;7.63;;;;;;;-3.47;100.00;99189.50;5008741;28;20425;-82
2023/01/18 04:01:05;;;;;;;12.45;6.53;;;;;;;-3.45;100.00;99197.13;5003755;28;20038;-85
2023/01/18 04:03:32;;;;;;;16.83;8.18;;;;;;;-3.43;100.00;99197.91;4992503;28;20545;-84
2023/01/18 04:06:03;;;;;;;24.50;16.67;;;;;;;-3.57;100.00;99200.25;4993081;28;20070;-87
2023/01/18 04:08:28;;;;;;;16.35;7.38;;;;;;;-3.45;100.00;99204.84;4978449;28;20034;-87
2023/01/18 04:10:53;;;;;;;21.50;8.68;;;;;;;-3.43;100.00;99210.75;4993481;28;20406;-85
2023/01/18 04:13:19;;;;;;;18.42;8.02;;;;;;;-3.44;100.00;99206.50;4994480;28;20038;-87
2023/01/18 04:15:44;;;;;;;15.98;6.30;;;;;;;-3.43;100.00;99212.50;5008537;28;20033;-87
2023/01/18 04:18:10;;;;;;;15.07;6.82;;;;;;;-3.43;100.00;99212.50;5007498;28;20124;-87
2023/01/18 04:20:35;;;;;;;16.83;7.45;;;;;;;-3.43;100.00;99213.31;4992712;28;20145;-87
2023/01/18 04:23:00;;;;;;;16.70;7.13;;;;;;;-3.42;100.00;99209.03;4976095;28;20136;-88
2023/01/18 04:25:26;;;;;;;26.08;8.13;;;;;;;-3.42;100.00;99219.31;4989766;28;20034;-87
2023/01/18 04:27:52;;;;;;;14.63;7.53;;;;;;;-3.44;100.00;99214.22;5005010;28;20042;-87
2023/01/18 04:30:17;;;;;;;14.57;6.85;;;;;;;-3.42;100.00;99221.88;5010873;28;20507;-86
2023/01/18 04:32:45;;;;;;;20.75;7.15;;;;;;;-3.44;100.00;99210.81;4996712;28;20253;-86
2023/01/18 04:35:11;;;;;;;26.33;17.20;;;;;;;-3.50;100.00;99214.50;4994562;28;20499;-86
2023/01/18 04:37:37;;;;;;;19.80;7.93;;;;;;;-3.43;100.00;99218.47;5013633;28;20052;-86
2023/01/18 04:40:06;;;;;;;25.40;17.20;;;;;;;-3.49;100.00;99218.72;5012953;28;20494;-86
2023/01/18 04:42:31;;;;;;;16.55;7.82;;;;;;;-3.41;100.00;99216.66;4993439;28;20034;-86
2023/01/18 04:44:58;;;;;;;14.07;7.68;;;;;;;-3.40;100.00;99227.78;5002685;28;20040;-86
2023/01/18 04:47:24;;;;;;;12.98;6.78;;;;;;;-3.39;100.00;99230.28;5013440;28;20133;-86
2023/01/18 04:49:49;;;;;;;20.77;8.23;;;;;;;-3.40;100.00;99228.63;5012195;28;20042;-86
2023/01/18 04:52:15;;;;;;;25.75;18.25;;;;;;;-3.51;100.00;99228.25;5014197;28;20030;-86
2023/01/18 04:54:40;;;;;;;19.83;7.60;;;;;;;-3.44;100.00;99232.22;5009441;28;20061;-86
2023/01/18 04:57:06;;;;;;;17.85;8.48;;;;;;;-3.44;100.00;99232.22;4972522;28;20118;-84
2023/01/18 04:59:31;;;;;;;20.85;8.77;;;;;;;-3.43;100.00;99233.88;4987856;28;20549;-84
2023/01/18 05:01:57;;;;;;;26.40;18.63;;;;;;;-3.52;100.00;99231.72;4988804;28;20042;-86
2023/01/18 05:04:22;;;;;;;23.92;8.77;;;;;;;-3.44;100.00;99242.50;4993560;28;20479;-86
2023/01/18 05:06:48;;;;;;;25.63;18.58;;;;;;;-3.52;100.00;99239.44;4992858;28;20038;-83
2023/01/18 05:09:13;;;;;;;17.58;8.43;;;;;;;-3.45;100.00;99243.41;4974148;28;20578;-86
2023/01/18 05:11:39;;;;;;;25.10;18.92;;;;;;;-3.52;100.00;99249.72;4991443;28;20030;-85
2023/01/18 05:14:04;;;;;;;22.88;8.27;;;;;;;-3.46;100.00;99254.59;4989802;28;20037;-86
2023/01/18 05:16:29;;;;;;;29.88;19.17;;;;;;;-3.53;100.00;99251.44;4998928;28;20058;-85
2023/01/18 05:18:55;;;;;;;17.33;8.25;;;;;;;-3.43;100.00;99251.06;4996597;28;20113;-86
2023/01/18 05:21:20;;;;;;;27.98;20.27;;;;;;;-3.49;100.00;99254.72;4989069;28;20038;-83
2023/01/18 05:23:46;;;;;;;16.48;8.32;;;;;;;-3.40;100.00;99262.03;4996022;28;20034;-86
2023/01/18 05:26:16;;;;;;;18.08;8.75;;;;;;;-3.38;100.00;99265.38;4990644;28;20038;-86
2023/01/18 05:28:42;;;;;;;22.35;7.93;;;;;;;-3.38;100.00;99262.81;4992088;28;20487;-85
2023/01/18 05:31:08;;;;;;;18.02;8.77;;;;;;;-3.39;100.00;99266.28;4992627;28;20047;-85
2023/01/18 05:33:33;;;;;;;20.08;9.68;;;;;;;-3.38;100.00;99264.53;4973634;28;20050;-85
2023/01/18 05:36:05;;;;;;;16.83;8.75;;;;;;;-3.38;100.00;99267.94;4965748;28;20046;-83
2023/01/18 05:38:31;;;;;;;;;;;;;;;-3.36;100.00;99271.28;4989823;28;20038;-85
2023/01/18 05:40:56;;;;;;;28.35;19.52;;;;;;;-3.51;100.00;99275.34;4990940;28;19910;-85
2023/01/18 05:43:23;;;;;;;22.00;9.00;;;;;;;-3.40;100.00;99279.19;4991151;28;20034;-82
2023/01/18 05:45:49;;;;;;;23.65;8.98;;;;;;;-3.39;100.00;99280.88;4991967;28;20035;-85
2023/01/18 05:48:15;;;;;;;20.08;9.82;;;;;;;-3.40;100.00;99277.47;4997307;28;20047;-84
2023/01/18 05:50:43;;;;;;;35.15;20.48;;;;;;;-3.53;100.00;99282.28;5003835;28;20482;-85
2023/01/18 05:53:09;;;;;;;22.98;9.35;;;;;;;-3.42;100.00;99286.97;5007772;28;20049;-84
2023/01/18 05:55:35;;;;;;;28.40;20.88;;;;;;;-3.44;100.00;99290.50;4998490;28;20034;-85
2023/01/18 05:58:01;;;;;;;23.45;9.88;;;;;;;-3.40;100.00;99299.75;5002054;28;20034;-85
2023/01/18 06:00:26;;;;;;;32.92;9.23;;;;;;;-3.40;100.00;99294.63;4999006;28;20034;-85
2023/01/18 06:02:52;;;;;;;15.68;9.35;;;;;;;-3.39;100.00;99302.28;4972124;28;20112;-85
2023/01/18 06:05:19;;;;;;;22.42;10.07;;;;;;;-3.41;100.00;99292.94;4973590;28;20038;-82
2023/01/18 06:07:46;;;;;;;21.40;9.05;;;;;;;-3.40;100.00;99300.59;4968007;28;20042;-84
2023/01/18 06:10:12;;;;;;;31.00;20.48;;;;;;;-3.52;100.00;99296.81;4972506;28;20054;-85
2023/01/18 06:12:37;;;;;;;25.98;10.82;;;;;;;-3.45;100.00;99299.97;4965074;28;20395;-85
2023/01/18 06:15:03;;;;;;;30.48;21.83;;;;;;;-3.53;100.00;99307.16;4965393;28;20046;-85
2023/01/18 06:17:30;;;;;;;28.73;21.60;;;;;;;-3.55;100.00;99304.66;5007295;28;20032;-85
2023/01/18 06:19:56;;;;;;;33.75;22.85;;;;;;;-3.56;100.00;99307.28;5005892;28;20037;-86
2023/01/18 06:22:21;;;;;;;26.33;10.32;;;;;;;-3.48;100.00;99316.34;5009426;28;20387;-85
2023/01/18 06:24:46;;;;;;;20.48;9.40;;;;;;;-3.45;100.00;99327.41;4993943;28;20052;-85
2023/01/18 06:27:12;;;;;;;17.08;9.18;;;;;;;-3.46;100.00;99324.00;4990930;28;20483;-86
2023/01/18 06:29:37;;;;;;;17.52;8.35;;;;;;;-3.47;100.00;99325.72;5005187;28;20826;-85
2023/01/18 06:32:04;;;;;;;19.45;9.30;;;;;;;-3.42;100.00;99329.84;4973242;28;20043;-85
2023/01/18 06:34:29;;;;;;;18.48;9.30;;;;;;;-3.43;100.00;99334.16;4990677;28;20061;-85
2023/01/18 06:36:55;;;;;;;21.45;10.00;;;;;;;-3.43;100.00;99343.59;4990254;28;20113;-85
2023/01/18 06:39:20;;;;;;;30.52;22.40;;;;;;;-3.51;100.00;99333.63;4992756;28;20487;-85
2023/01/18 06:41:45;;;;;;;20.35;10.02;;;;;;;-3.42;100.00;99345.28;4992230;28;20104;-85
2023/01/18 06:44:11;;;;;;;21.17;9.73;;;;;;;-3.42;100.00;99338.38;5000334;28;20038;-85
2023/01/18 06:46:36;;;;;;;17.17;9.07;;;;;;;-3.44;100.00;99345.34;4972459;28;20073;-85
2023/01/18 06:49:05;;;;;;;27.92;9.20;;;;;;;-3.42;100.00;99343.53;4993459;28;20036;-85
2023/01/18 06:51:30;;;;;;;21.20;9.15;;;;;;;-3.42;100.00;99348.69;4986302;28;20045;-85
2023/01/18 06:53:55;;;;;;;34.50;22.85;;;;;;;-3.57;100.00;99345.00;4999434;28;20031;-85
2023/01/18 06:56:30;;;;;;;22.73;10.40;;;;;;;-3.45;100.00;99363.38;4987099;28;20034;-85
2023/01/18 06:58:57;;;;;;;33.28;22.73;;;;;;;-3.58;100.00;99369.03;5004278;28;20050;-85
2023/01/18 07:01:24;;;;;;;29.85;21.60;;;;;;;-3.58;100.00;99368.19;4976983;28;20096;-84
2023/01/18 07:03:49;;;;;;;29.48;23.05;;;;;;;-3.58;100.00;99373.34;4967040;28;20464;-84
2023/01/18 07:06:15;;;;;;;26.80;10.35;;;;;;;-3.51;100.00;99379.91;4974523;28;20066;-87
2023/01/18 07:08:41;;;;;;;22.13;9.55;;;;;;;-3.49;100.00;99390.97;4985545;28;20046;-84
2023/01/18 07:11:08;;;;;;;17.17;9.05;;;;;;;-3.50;100.00;99391.84;4990454;28;20397;-84
2023/01/18 07:13:34;;;;;;;28.05;21.85;;;;;;;-3.59;100.00;99394.81;4968623;28;20038;-84
2023/01/18 07:16:16;;;;;;;19.63;9.35;;;;;;;-3.52;100.00;99386.78;4953347;28;20038;-84
2023/01/18 07:18:45;;;;;;;19.48;9.25;;;;;;;-3.50;100.00;99384.16;4969309;28;20035;-84
2023/01/18 07:21:12;;;;;;;17.55;9.35;;;;;;;-3.49;100.00;99383.25;4982940;28;20031;-85
2023/01/18 07:23:39;;;;;;;19.35;9.80;;;;;;;-3.48;100.00;99395.19;4972510;28;20469;-85
2023/01/18 07:26:10;;;;;;;27.75;21.88;;;;;;;-3.53;100.00;99404.84;4971551;28;20036;-85
2023/01/18 07:28:36;;;;;;;21.02;11.02;;;;;;;-3.48;100.00;99403.75;4972464;28;20100;-85
2023/01/18 07:31:06;;;;;;;30.08;10.65;;;;;;;-3.47;100.00;99399.44;4990585;28;20035;-84
2023/01/18 07:33:32;;;;;;;31.13;21.40;;;;;;;-3.53;100.00;99397.97;4973549;28;20442;-84
2023/01/18 07:36:05;;;;;;;22.98;10.40;;;;;;;-3.47;100.00;99395.13;4976163;28;20031;-85
2023/01/18 07:38:30;;;;;;;20.23;10.02;;;;;;;-3.45;100.00;99410.50;4991226;28;20034;-85
2023/01/18 07:40:58;;;;;;;17.42;9.32;;;;;;;-3.44;100.00;99404.47;4990730;28;20553;-85
2023/01/18 07:43:24;;;;;;;15.77;8.90;;;;;;;-3.41;100.00;99412.03;4992852;28;20117;-84
2023/01/18 07:45:53;;;;;;;17.48;9.07;;;;;;;-3.39;100.00;99411.97;4993330;28;20089;-85
2023/01/18 07:48:22;;;;;;;19.92;8.68;;;;;;;-3.40;100.00;99418.88;4991645;28;20125;-85
2023/01/18 07:51:08;;;;;;;15.63;8.10;;;;;;;-3.39;100.00;99417.97;4992749;28;20117;-81
2023/01/18 07:53:35;;;;;;;19.27;9.20;;;;;;;-3.37;100.00;99418.75;4972908;28;20073;-81
2023/01/18 07:56:06;;;;;;;28.80;20.52;;;;;;;-3.44;100.00;99417.31;4992873;28;20037;-83
2023/01/18 07:58:33;;;;;;;15.35;8.82;;;;;;;-3.37;100.00;99418.75;4991666;28;20034;-83
2023/01/18 08:01:09;;;;;;;26.70;20.88;;;;;;;-3.41;100.00;99426.63;4974042;28;20088;-83
2023/01/18 08:03:35;;;;;;;26.30;20.33;;;;;;;-3.44;100.00;99427.59;4974439;28;20665;-83
2023/01/18 08:06:02;;;;;;;19.50;9.20;;;;;;;-3.36;100.00;99430.69;4989974;28;20141;-84
2023/01/18 08:08:29;;;;;;;21.45;9.80;;;;;;;-3.34;100.00;99434.03;4990777;28;20122;-84
2023/01/18 08:10:55;;;;;;;20.42;9.77;;;;;;;-3.32;100.00;99436.53;4992229;28;20038;-84
2023/01/18 08:13:21;;;;;;;27.45;20.17;;;;;;;-3.36;100.00;99438.41;4991715;28;20030;-85
2023/01/18 08:15:47;;;;;;;20.23;8.95;;;;;;;-3.29;100.00;99439.84;4991788;28;20030;-85
2023/01/18 08:18:13;;;;;;;27.48;20.83;;;;;;;-3.34;100.00;99441.75;4993549;28;20034;-85
2023/01/18 08:20:42;;;;;;;31.95;21.05;;;;;;;-3.30;100.00;99445.88;4992829;28;20482;-85
2023/01/18 08:23:07;;;;;;;22.85;9.52;;;;;;;-3.23;100.00;99447.28;4990417;28;20034;-85
2023/01/18 08:25:33;;;;;;;16.73;8.10;;;;;;;-3.19;100.00;99454.00;4992165;28;20046;-81
2023/01/18 08:28:01;;;;;;;19.70;8.90;;;;;;;-3.15;100.00;99444.44;4974932;28;20113;-85
2023/01/18 08:30:31;;;;;;;24.60;19.35;;;;;;;-3.18;100.00;99442.81;4991529;28;20026;-84
2023/01/18 08:32:59;;;;;;;19.02;8.43;;;;;;;-3.08;100.00;99447.59;4995751;28;20518;-85
2023/01/18 08:35:27;;;;;;;16.63;8.10;;;;;;;-3.05;100.00;99456.03;4989524;28;20026;-81
2023/01/18 08:37:53;;;;;;;19.15;8.40;;;;;;;-3.02;100.00;99461.03;4992095;28;20033;-85
2023/01/18 08:40:25;;;;;;;17.75;9.65;;;;;;;-3.00;100.00;99466.94;4975016;28;20034;-84
2023/01/18 08:42:55;;;;;;;25.73;19.80;;;;;;;-3.03;100.00;99471.38;4972267;28;20030;-84
2023/01/18 08:45:21;;;;;;;17.40;9.13;;;;;;;-2.96;100.00;99475.38;4986791;28;20483;-84
2023/01/18 08:47:46;;;;;;;30.08;21.70;;;;;;;-2.95;100.00;99482.19;4974187;28;20137;-85
2023/01/18 08:50:11;;;;;;;28.40;21.92;;;;;;;-2.94;100.00;99487.28;4990786;28;20101;-84
2023/01/18 08:52:37;;;;;;;22.48;9.75;;;;;;;-2.85;100.00;99496.34;4991765;28;20034;-84
2023/01/18 08:55:04;;;;;;;19.20;9.77;;;;;;;-2.82;100.00;99483.38;4975402;28;20057;-84
2023/01/18 08:58:00;;;;;;;27.55;20.92;;;;;;;-2.79;100.00;99496.13;4990821;28;20037;-82
2023/01/18 09:00:29;;;;;;;26.40;10.35;;;;;;;-2.75;100.00;99486.53;4993143;28;20368;-84
2023/01/18 09:02:55;;;;;;;27.77;19.98;;;;;;;-2.73;100.00;99492.47;4991639;28;20038;-84
2023/01/18 09:05:25;;;;;;;24.30;10.23;;;;;;;-2.65;100.00;99495.56;4992444;28;20115;-84
2023/01/18 09:07:53;;;;;;;26.88;19.30;;;;;;;-2.63;100.00;99493.75;4971388;28;20062;-84
2023/01/18 09:10:31;;;;;;;18.63;8.95;;;;;;;-2.55;100.00;99495.09;4990203;28;20550;-85
2023/01/18 09:12:57;;;;;;;23.65;9.00;;;;;;;-2.50;100.00;99499.22;4975548;28;20045;-85
2023/01/18 09:15:26;;;;;;;26.48;18.65;;;;;;;-2.50;100.00;99494.91;4989900;28;20403;-85
2023/01/18 09:17:51;;;;;;;25.15;18.45;;;;;;;-2.44;100.00;99502.34;4971128;28;20038;-85
2023/01/18 09:20:16;;;;;;;16.20;8.50;;;;;;;-2.36;100.00;99512.34;4972341;28;20514;-85
2023/01/18 09:22:43;;;;;;;17.10;8.15;;;;;;;-2.31;100.00;99515.56;4972992;28;20517;-84
2023/01/18 09:25:10;;;;;;;16.83;8.43;;;;;;;-2.25;100.00;99521.28;4990932;28;20041;-84
2023/01/18 09:27:35;;;;;;;18.83;9.38;;;;;;;-2.19;100.00;99524.50;4989908;28;20073;-84
2023/01/18 09:30:00;;;;;;;22.73;18.33;;;;;;;-2.12;100.00;99521.59;4991497;28;20061;-84
2023/01/18 09:32:26;;;;;;;21.00;10.18;;;;;;;-2.05;100.00;99532.47;4988887;28;20037;-84
2023/01/18 09:34:51;;;;;;;13.05;7.90;;;;;;;-1.98;100.00;99529.56;4987627;28;20026;-84
2023/01/18 09:37:18;;;;;;;23.80;17.95;;;;;;;-1.93;100.00;99537.94;4988634;28;20454;-84
2023/01/18 09:39:43;;;;;;;17.15;8.60;;;;;;;-1.83;100.00;99540.94;4985995;28;20130;-79
2023/01/18 09:42:21;;;;;;;22.65;17.65;;;;;;;-1.70;100.00;99542.06;4989933;28;20113;-83
2023/01/18 09:44:54;;;;;;;20.20;8.07;;;;;;;-1.63;100.00;99542.59;4990566;28;20114;-84
2023/01/18 09:47:26;;;;;;;19.73;16.33;;;;;;;-1.50;100.00;99543.75;4989294;28;20133;-86
2023/01/18 09:49:57;;;;;;;20.73;17.33;;;;;;;-1.41;100.00;99553.63;4990832;28;20040;-87
2023/01/18 09:52:45;;;;;;;21.30;8.10;;;;;;;-1.33;100.00;99555.84;4989244;28;20085;-81
2023/01/18 09:55:15;;;;;;;23.73;16.00;;;;;;;-1.22;100.00;99555.34;4992715;28;20125;-81
2023/01/18 09:57:47;;;;;;;22.08;16.23;;;;;;;-1.15;100.00;99551.59;4989381;28;20248;-85
2023/01/18 10:00:25;;;;;;;21.52;16.58;;;;;;;-1.11;100.00;99559.13;4990657;28;20053;-86
2023/01/18 10:02:59;;;;;;;22.55;16.05;;;;;;;-0.98;100.00;99557.63;4971677;28;21580;-85
2023/01/18 10:05:39;;;;;;;17.95;8.60;;;;;;;-0.91;100.00;99553.00;4969896;28;20100;-85
2023/01/18 10:08:17;;;;;;;20.73;15.57;;;;;;;-0.80;100.00;99555.94;4989569;28;20503;-85
2023/01/18 10:11:26;;;;;;;17.15;15.18;;;;;;;-0.75;100.00;99561.72;4990839;28;20045;-85
2023/01/18 10:14:16;;;;;;;20.52;15.55;;;;;;;-0.66;100.00;99561.25;4934210;28;20083;-85
2023/01/18 10:16:41;;;;;;;19.25;15.30;;;;;;;-0.67;100.00;99554.41;4988507;28;20036;-85
2023/01/18 10:19:18;;;;;;;20.40;14.45;;;;;;;-0.54;100.00;99569.31;4989991;28;20034;-85
2023/01/18 10:22:04;;;;;;;18.27;14.88;;;;;;;-0.52;100.00;99564.91;4987734;28;20045;-85
2023/01/18 10:24:42;;;;;;;17.98;14.35;;;;;;;-0.41;100.00;99576.38;4997524;28;20117;-81
2023/01/18 10:27:40;;;;;;;18.80;15.30;;;;;;;-0.31;100.00;99581.94;4992964;28;20566;-80
2023/01/18 10:30:09;;;;;;;18.00;14.50;;;;;;;-0.23;100.00;99569.47;4986877;28;20124;-85
2023/01/18 10:32:37;;;;;;;15.95;13.68;;;;;;;-0.16;100.00;99575.16;4986707;28;20117;-85
2023/01/18 10:35:28;;;;;;;18.17;14.05;;;;;;;-0.11;100.00;99579.19;4989337;28;20038;-81
2023/01/18 10:37:59;;;;;;;18.20;13.98;;;;;;;-0.05;100.00;99572.84;4988772;28;20096;-81
2023/01/18 10:40:25;;;;;;;17.50;14.20;;;;;;;0.04;100.00;99566.41;4988723;28;20037;-84
2023/01/18 10:42:55;;;;;;;17.08;14.23;;;;;;;0.09;100.00;99569.59;4987308;28;20031;-84
2023/01/18 10:45:24;;;;;;;17.70;13.57;;;;;;;0.16;100.00;99565.78;4988471;28;20092;-84
2023/01/18 10:47:51;;;;;;;18.75;13.35;;;;;;;0.21;100.00;99568.94;4988665;28;20045;-84
2023/01/18 10:50:31;;;;;;;11.52;7.07;;;;;;;0.25;100.00;99575.63;4986516;28;20034;-83
2023/01/18 10:52:57;;;;;;;18.00;13.23;;;;;;;0.34;100.00;99569.97;4989017;28;20038;-84
2023/01/18 10:55:22;;;;;;;18.15;13.45;;;;;;;0.40;100.00;99564.50;4987348;28;20061;-86
2023/01/18 10:57:52;;;;;;;17.73;14.25;;;;;;;0.43;100.00;99564.34;4988698;28;20113;-85
2023/01/18 11:00:20;;;;;;;20.08;14.15;;;;;;;0.52;100.00;99571.59;4984153;28;20034;-80
2023/01/18 11:02:50;;;;;;;19.73;13.45;;;;;;;0.53;100.00;99570.69;4988408;28;20096;-85
2023/01/18 11:05:16;;;;;;;18.80;12.63;;;;;;;0.60;100.00;99577.19;4987361;28;20406;-85
2023/01/18 11:07:41;;;;;;;14.95;12.40;;;;;;;0.66;100.00;99576.03;4987153;28;20031;-85
2023/01/18 11:10:25;;;;;;;18.27;11.68;;;;;;;0.72;100.00;99578.28;4988703;28;20069;-85
2023/01/18 11:12:53;;;;;;;16.42;12.50;;;;;;;0.79;99.77;99576.19;4988210;28;20076;-79
2023/01/18 11:15:23;;;;;;;16.42;12.85;;;;;;;0.85;99.68;99586.25;4988062;28;20038;-84
2023/01/18 11:17:59;;;;;;;16.67;12.45;;;;;;;0.92;99.14;99582.41;4986658;28;20062;-79
2023/01/18 11:20:33;;;;;;;18.02;12.93;;;;;;;0.95;98.88;99592.59;4989024;28;20367;-85
2023/01/18 11:23:05;;;;;;;16.77;12.82;;;;;;;0.99;99.04;99582.88;4970910;28;20455;-79
2023/01/18 11:25:37;;;;;;;15.35;12.25;;;;;;;1.03;98.60;99587.81;4985908;28;20034;-85
2023/01/18 11:28:06;;;;;;;15.05;11.70;;;;;;;1.13;99.11;99588.97;4987107;28;20038;-85
2023/01/18 11:30:32;;;;;;;14.10;11.60;;;;;;;1.16;97.45;99583.63;4989490;28;20097;-86
2023/01/18 11:33:01;;;;;;;19.98;12.77;;;;;;;1.24;98.00;99578.03;4989595;28;20034;-85
2023/01/18 11:35:33;;;;;;;13.43;11.45;;;;;;;1.29;97.68;99573.44;5005120;28;20124;-85
2023/01/18 11:38:00;;;;;;;17.35;12.32;;;;;;;1.38;97.41;99572.91;5011879;28;20040;-86
2023/01/18 11:40:28;;;;;;;14.90;11.30;;;;;;;1.40;96.91;99573.63;4990367;28;20565;-85
2023/01/18 11:43:02;;;;;;;15.13;11.30;;;;;;;1.51;96.34;99579.03;4966029;28;20126;-84
2023/01/18 11:45:49;;;;;;;14.18;11.00;;;;;;;1.56;96.21;99576.19;4992839;28;20033;-78
2023/01/18 11:48:40;;;;;;;16.00;10.60;;;;;;;1.63;95.23;99574.09;4989182;28;20129;-81
2023/01/18 11:51:21;;;;;;;16.77;10.40;;;;;;;1.72;95.17;99574.41;5007514;28;20089;-82
2023/01/18 11:54:31;;;;;;;14.07;10.55;;;;;;;1.80;95.42;99574.78;4995904;28;20050;-83
2023/01/18 11:56:58;;;;;;;15.25;10.35;;;;;;;1.84;94.28;99576.25;4960641;28;20096;-83
2023/01/18 11:59:31;;;;;;;12.52;9.95;;;;;;;1.89;94.30;99571.63;4989843;28;20149;-84
2023/01/18 12:02:14;;;;;;;13.88;10.07;;;;;;;1.97;93.93;99573.78;4990362;28;20038;-80